Time;durP1;ratioP1;P1;durP2;ratioP2;P2;SDS_P1;SDS_P2;PMS_P1;PMS_P2;Temp;Humidity;BMP_temperature;BMP_pressure;BME280_temperature;BME280_humidity;BME280_pressure;Samples;Min_cycle;Max_cycle;Signal;HPM_P1;HPM_P2
2021/11/05 00:01:30;;;;;;;7.05;6.43;;;;;;;10.06;59.13;99526.53;4998877;28;96836;-79
2021/11/05 00:03:56;;;;;;;7.90;7.10;;;;;;;9.98;59.10;99526.06;5015990;28;97625;-80
2021/11/05 00:06:22;;;;;;;8.20;7.22;;;;;;;10.03;59.02;99534.53;5006091;28;101666;-79
2021/11/05 00:08:48;;;;;;;6.78;6.18;;;;;;;10.02;58.84;99532.00;4978732;28;96834;-80
2021/11/05 00:11:14;;;;;;;6.57;5.97;;;;;;;10.01;58.95;99548.66;4999935;28;98012;-79
2021/11/05 00:13:39;;;;;;;6.80;6.22;;;;;;;10.05;58.77;99542.34;4998151;28;101515;-80
2021/11/05 00:16:05;;;;;;;7.68;6.85;;;;;;;9.89;59.01;99526.44;4998519;28;98312;-79
2021/11/05 00:18:30;;;;;;;6.80;6.20;;;;;;;9.87;59.34;99536.16;5016458;28;96727;-81
2021/11/05 00:20:56;;;;;;;6.88;6.38;;;;;;;9.97;59.04;99558.41;5015483;28;97170;-78
2021/11/05 00:23:22;;;;;;;6.38;5.82;;;;;;;9.97;59.17;99554.00;4999051;28;101493;-78
2021/11/05 00:25:47;;;;;;;6.75;6.15;;;;;;;9.95;59.04;99562.88;4970219;28;101955;-79
2021/11/05 00:28:14;;;;;;;6.93;6.32;;;;;;;9.97;58.70;99556.63;4999508;28;97193;-78
2021/11/05 00:30:41;;;;;;;6.60;6.10;;;;;;;9.96;58.36;99539.22;5011551;28;97035;-79
2021/11/05 00:33:06;;;;;;;5.97;5.47;;;;;;;9.91;58.71;99559.53;4998078;28;101172;-79
2021/11/05 00:35:32;;;;;;;6.93;6.32;;;;;;;9.89;58.58;99569.25;4998952;28;98476;-79
2021/11/05 00:37:58;;;;;;;6.43;5.93;;;;;;;9.89;59.02;99564.00;5001910;28;97318;-79
2021/11/05 00:40:25;;;;;;;6.63;6.13;;;;;;;9.97;58.82;99579.38;4980479;28;97946;-79
2021/11/05 00:42:51;;;;;;;6.57;5.88;;;;;;;10.02;58.76;99587.91;5015477;28;97483;-79
2021/11/05 00:45:17;;;;;;;6.35;5.85;;;;;;;9.86;58.71;99579.00;5015633;28;97964;-79
2021/11/05 00:47:42;;;;;;;6.18;5.78;;;;;;;9.88;58.67;99579.78;4993202;28;97145;-79
2021/11/05 00:50:09;;;;;;;7.22;6.63;;;;;;;9.96;58.77;99593.44;4981744;28;97161;-78
2021/11/05 00:52:34;;;;;;;7.35;6.75;;;;;;;10.01;58.72;99603.72;4997557;28;101258;-79
2021/11/05 00:55:00;;;;;;;6.75;6.15;;;;;;;9.96;58.84;99601.28;4978371;28;101133;-79
2021/11/05 00:57:26;;;;;;;7.13;6.55;;;;;;;10.01;58.79;99608.97;5016103;28;96694;-79
2021/11/05 00:59:51;;;;;;;6.85;6.35;;;;;;;9.85;58.41;99583.38;4998817;28;97142;-79
2021/11/05 01:02:17;;;;;;;7.07;6.43;;;;;;;9.92;58.87;99612.84;4981443;28;101241;-79
2021/11/05 01:04:43;;;;;;;7.43;6.80;;;;;;;9.96;58.71;99604.75;4981597;28;101760;-79
2021/11/05 01:07:08;;;;;;;7.28;6.68;;;;;;;10.02;58.43;99614.13;5002822;28;96897;-79
2021/11/05 01:09:34;;;;;;;6.85;6.25;;;;;;;9.90;58.59;99601.56;5008137;28;97417;-79
2021/11/05 01:11:59;;;;;;;7.53;6.90;;;;;;;9.86;58.59;99586.84;4996846;28;98072;-79
2021/11/05 01:14:25;;;;;;;7.22;6.53;;;;;;;9.94;58.52;99605.75;4978178;28;101455;-79
2021/11/05 01:16:51;;;;;;;6.88;6.30;;;;;;;9.89;58.28;99611.19;4967444;28;96722;-79
2021/11/05 01:19:16;;;;;;;8.00;7.10;;;;;;;9.87;58.55;99609.56;4995558;28;97086;-79
2021/11/05 01:21:42;;;;;;;7.63;6.93;;;;;;;9.92;58.85;99616.31;4996600;28;101284;-79
2021/11/05 01:24:07;;;;;;;7.05;6.43;;;;;;;9.85;58.69;99606.97;4993974;28;101222;-79
2021/11/05 01:26:33;;;;;;;7.50;6.90;;;;;;;9.92;58.39;99605.81;5014125;28;97118;-80
2021/11/05 01:28:59;;;;;;;7.60;6.85;;;;;;;9.94;58.49;99617.06;5027859;28;96904;-79
2021/11/05 01:31:25;;;;;;;8.30;6.47;;;;;;;9.97;58.67;99616.94;4985163;28;97392;-79
2021/11/05 01:33:50;;;;;;;7.00;6.30;;;;;;;9.90;58.40;99612.88;4991541;28;101081;-80
2021/11/05 01:36:16;;;;;;;7.85;7.15;;;;;;;9.84;58.57;99604.44;4978321;28;97099;-78
2021/11/05 01:38:42;;;;;;;7.75;7.03;;;;;;;9.78;58.33;99595.06;4998715;28;97096;-78
2021/11/05 01:41:07;;;;;;;7.65;6.88;;;;;;;9.87;58.75;99613.03;5009439;28;101299;-78
2021/11/05 01:43:33;;;;;;;7.38;6.78;;;;;;;9.86;58.69;99615.69;4996268;28;98645;-79
2021/11/05 01:45:59;;;;;;;7.45;6.75;;;;;;;9.83;58.69;99614.06;4973217;28;97133;-79
2021/11/05 01:48:25;;;;;;;7.22;6.63;;;;;;;9.83;58.30;99619.31;4990627;28;97762;-78
2021/11/05 01:50:51;;;;;;;7.93;7.22;;;;;;;9.85;58.35;99619.25;4971290;28;101396;-80
2021/11/05 01:53:17;;;;;;;7.63;6.80;;;;;;;9.89;58.49;99633.91;4996424;28;98442;-79
2021/11/05 01:55:44;;;;;;;8.20;7.50;;;;;;;9.85;58.77;99629.72;4979478;28;97160;-79
2021/11/05 01:58:11;;;;;;;8.20;7.45;;;;;;;9.94;57.85;99629.34;4994546;28;97258;-78
2021/11/05 02:00:36;;;;;;;10.00;7.70;;;;;;;9.93;57.74;99628.50;4991522;28;98117;-78
2021/11/05 02:03:02;;;;;;;7.82;7.00;;;;;;;9.67;58.21;99606.00;4976673;28;101787;-79
2021/11/05 02:05:28;;;;;;;8.52;7.78;;;;;;;9.72;58.48;99642.50;4998126;28;97167;-78
2021/11/05 02:07:54;;;;;;;8.45;7.15;;;;;;;9.74;58.41;99651.13;4993990;28;96901;-79
2021/11/05 02:10:22;;;;;;;9.82;7.80;;;;;;;9.77;58.29;99660.63;4980830;28;101116;-78
2021/11/05 02:12:48;;;;;;;9.02;7.13;;;;;;;9.70;58.73;99654.81;4976002;28;101351;-79
2021/11/05 02:15:15;;;;;;;10.05;6.97;;;;;;;9.70;58.48;99658.28;4996413;28;97170;-79
2021/11/05 02:17:41;;;;;;;8.45;7.65;;;;;;;9.55;58.96;99671.16;4992324;28;96875;-79
2021/11/05 02:20:08;;;;;;;9.45;8.57;;;;;;;9.56;59.04;99673.69;5013252;28;97515;-80
2021/11/05 02:22:34;;;;;;;9.30;8.38;;;;;;;9.70;58.81;99692.34;4992974;28;98478;-79
2021/11/05 02:24:59;;;;;;;10.52;8.70;;;;;;;9.66;58.95;99672.44;4996434;28;96721;-80
2021/11/05 02:27:28;;;;;;;9.38;8.57;;;;;;;9.72;59.12;99705.41;4981520;28;97387;-79
2021/11/05 02:29:56;;;;;;;12.07;8.50;;;;;;;9.72;58.57;99693.16;4981344;28;98082;-79
2021/11/05 02:32:22;;;;;;;9.40;8.55;;;;;;;9.60;59.09;99687.53;4997396;28;101574;-78
2021/11/05 02:34:47;;;;;;;9.45;8.52;;;;;;;9.59;58.88;99699.78;4997121;28;96957;-79
2021/11/05 02:37:13;;;;;;;10.20;9.20;;;;;;;9.56;59.36;99697.28;5012570;28;97407;-79
2021/11/05 02:39:38;;;;;;;9.45;8.65;;;;;;;9.54;58.92;99717.47;4995110;28;101515;-79
2021/11/05 02:42:04;;;;;;;10.32;9.43;;;;;;;9.56;58.83;99723.47;4996818;28;97413;-79
2021/11/05 02:44:30;;;;;;;9.70;8.75;;;;;;;9.56;59.03;99727.88;4995786;28;96745;-79
2021/11/05 02:46:55;;;;;;;9.80;9.00;;;;;;;9.52;58.86;99730.63;4980372;28;96857;-80
2021/11/05 02:49:21;;;;;;;9.75;8.88;;;;;;;9.38;59.04;99716.34;4993613;28;101686;-79
2021/11/05 02:51:49;;;;;;;10.27;9.20;;;;;;;9.53;58.73;99726.22;4979903;28;101637;-79
2021/11/05 02:54:15;;;;;;;9.80;8.80;;;;;;;9.49;59.13;99737.75;4994997;28;96870;-78
2021/11/05 02:56:41;;;;;;;9.55;8.65;;;;;;;9.45;59.04;99733.53;4997644;28;96843;-79
2021/11/05 02:59:07;;;;;;;10.63;9.35;;;;;;;9.43;59.16;99743.22;4981107;28;101380;-79
2021/11/05 03:01:34;;;;;;;10.30;9.30;;;;;;;9.36;58.70;99718.16;4979866;28;101603;-79
2021/11/05 03:04:05;;;;;;;10.23;9.32;;;;;;;9.41;59.04;99727.56;4994659;28;96646;-79
2021/11/05 03:06:36;;;;;;;10.93;9.57;;;;;;;9.54;58.74;99746.28;4993192;28;96690;-79
2021/11/05 03:09:09;;;;;;;9.90;9.00;;;;;;;9.56;58.99;99749.69;4973421;28;101537;-79
2021/11/05 03:11:35;;;;;;;10.00;8.95;;;;;;;9.49;58.64;99746.47;5011916;28;97566;-79
2021/11/05 03:14:01;;;;;;;10.48;9.50;;;;;;;9.46;58.58;99751.81;4976872;28;96834;-79
2021/11/05 03:16:26;;;;;;;10.38;9.38;;;;;;;9.44;58.88;99755.41;5013430;28;97225;-79
2021/11/05 03:18:52;;;;;;;10.25;9.25;;;;;;;9.48;58.88;99749.13;4996517;28;97445;-79
2021/11/05 03:21:18;;;;;;;10.75;9.45;;;;;;;9.51;58.46;99759.47;5012572;28;98112;-79
2021/11/05 03:23:44;;;;;;;11.23;10.13;;;;;;;9.46;58.85;99764.06;4993261;28;97213;-79
2021/11/05 03:26:10;;;;;;;10.32;9.32;;;;;;;9.44;58.96;99760.66;4996130;28;97225;-79
2021/11/05 03:28:35;;;;;;;10.52;9.48;;;;;;;9.44;58.91;99758.03;4987204;28;100901;-79
2021/11/05 03:31:01;;;;;;;11.32;10.23;;;;;;;9.49;58.53;99761.34;4992164;28;97952;-77
2021/11/05 03:33:27;;;;;;;10.75;9.65;;;;;;;9.48;58.82;99759.59;4995796;28;96980;-78
2021/11/05 03:35:52;;;;;;;9.80;8.90;;;;;;;9.49;58.73;99743.84;4995990;28;97189;-78
2021/11/05 03:38:18;;;;;;;9.57;8.73;;;;;;;9.46;58.87;99774.56;4976105;28;101576;-78
2021/11/05 03:40:44;;;;;;;9.20;8.30;;;;;;;9.50;58.51;99765.66;4999350;28;100968;-79
2021/11/05 03:43:09;;;;;;;9.88;8.90;;;;;;;9.46;58.54;99775.41;4986006;28;97119;-79
2021/11/05 03:45:35;;;;;;;8.95;8.02;;;;;;;9.47;58.95;99779.72;4983244;28;97113;-79
2021/11/05 03:48:01;;;;;;;10.48;9.23;;;;;;;9.46;58.71;99791.13;4996724;28;101757;-79
2021/11/05 03:50:26;;;;;;;12.02;8.75;;;;;;;9.56;58.77;99793.38;4998882;28;101540;-79
2021/11/05 03:52:52;;;;;;;10.13;9.23;;;;;;;9.56;58.74;99796.00;4996237;28;96913;-79
2021/11/05 03:55:18;;;;;;;9.38;8.43;;;;;;;9.44;58.93;99802.56;5002114;28;96742;-79
2021/11/05 03:57:43;;;;;;;11.55;8.95;;;;;;;9.53;58.72;99797.81;4996143;28;101229;-79
2021/11/05 04:00:10;;;;;;;10.00;8.52;;;;;;;9.57;58.62;99808.19;4981920;28;100847;-79
2021/11/05 04:02:37;;;;;;;11.73;8.70;;;;;;;9.50;58.79;99810.19;4995682;28;97090;-80
2021/11/05 04:05:04;;;;;;;10.40;9.35;;;;;;;9.56;58.63;99817.81;4981802;28;96813;-79
2021/11/05 04:07:29;;;;;;;9.45;8.45;;;;;;;9.52;59.01;99811.00;4967169;28;101640;-79
2021/11/05 04:09:55;;;;;;;9.20;8.27;;;;;;;9.38;59.22;99797.56;4999159;28;97489;-80
2021/11/05 04:12:20;;;;;;;10.23;8.60;;;;;;;9.46;58.62;99814.69;4997921;28;96816;-79
2021/11/05 04:14:46;;;;;;;9.50;8.52;;;;;;;9.50;59.17;99818.03;5016365;28;96752;-79
2021/11/05 04:17:13;;;;;;;8.45;7.75;;;;;;;9.52;59.19;99822.31;4990137;28;97682;-78
2021/11/05 04:19:40;;;;;;;11.93;8.98;;;;;;;9.48;58.84;99820.75;4979291;28;100860;-79
2021/11/05 04:22:06;;;;;;;8.65;7.85;;;;;;;9.41;59.15;99821.03;4997245;28;97235;-79
2021/11/05 04:24:32;;;;;;;8.45;7.68;;;;;;;9.43;59.31;99832.31;4995163;28;97295;-79
2021/11/05 04:26:57;;;;;;;9.07;8.18;;;;;;;9.48;58.59;99823.38;4975053;28;101733;-80
2021/11/05 04:29:23;;;;;;;9.80;8.90;;;;;;;9.53;58.64;99846.75;5004537;28;100958;-78
2021/11/05 04:31:48;;;;;;;8.65;7.82;;;;;;;9.53;58.78;99838.91;4984089;28;96807;-78
2021/11/05 04:34:14;;;;;;;8.13;7.43;;;;;;;9.49;59.22;99853.03;4984671;28;96999;-80
2021/11/05 04:36:39;;;;;;;8.10;7.40;;;;;;;9.32;59.09;99837.06;4993793;28;101453;-79
2021/11/05 04:39:05;;;;;;;8.00;7.40;;;;;;;9.38;59.19;99844.72;4995023;28;100923;-79
2021/11/05 04:41:31;;;;;;;8.07;7.47;;;;;;;9.51;58.83;99865.16;4978107;28;97353;-78
2021/11/05 04:43:56;;;;;;;9.07;8.18;;;;;;;9.51;58.96;99870.41;4997825;28;97492;-79
2021/11/05 04:46:22;;;;;;;9.20;8.40;;;;;;;9.60;58.50;99878.81;5002262;28;98563;-81
2021/11/05 04:48:48;;;;;;;9.05;8.25;;;;;;;9.41;59.12;99861.16;4999455;28;97599;-80
2021/11/05 04:51:13;;;;;;;8.80;8.05;;;;;;;9.47;59.02;99870.56;4979270;28;96871;-80
2021/11/05 04:53:39;;;;;;;8.65;7.82;;;;;;;9.51;59.12;99885.25;4982233;28;96898;-79
2021/11/05 04:56:05;;;;;;;9.32;8.43;;;;;;;9.53;59.00;99880.81;4992565;28;101467;-79
2021/11/05 04:58:31;;;;;;;10.52;8.27;;;;;;;9.53;58.41;99881.66;4982628;28;101500;-79
2021/11/05 05:00:57;;;;;;;7.78;6.45;;;;;;;9.59;58.17;99882.34;5002619;28;97206;-80
2021/11/05 05:03:22;;;;;;;7.00;5.88;;;;;;;9.50;59.03;99887.03;5015665;28;96912;-79
2021/11/05 05:05:48;;;;;;;7.88;6.68;;;;;;;9.51;58.69;99886.13;4980942;28;101291;-80
2021/11/05 05:08:13;;;;;;;6.68;6.07;;;;;;;9.39;58.70;99888.31;4998020;28;101800;-79
2021/11/05 05:10:39;;;;;;;6.93;6.32;;;;;;;9.49;58.37;99885.31;4987187;28;97073;-79
2021/11/05 05:13:04;;;;;;;5.97;5.47;;;;;;;9.44;58.65;99905.59;4997898;28;96866;-79
2021/11/05 05:15:30;;;;;;;6.47;5.65;;;;;;;9.40;58.34;99898.75;4990681;28;97627;-79
2021/11/05 05:17:56;;;;;;;7.20;6.15;;;;;;;9.43;58.25;99909.13;4981349;28;101713;-79
2021/11/05 05:20:22;;;;;;;7.90;6.32;;;;;;;9.45;58.59;99912.56;4997846;28;96787;-79
2021/11/05 05:22:48;;;;;;;7.45;6.07;;;;;;;9.43;58.54;99919.59;5012361;28;96763;-79
2021/11/05 05:25:15;;;;;;;6.22;5.63;;;;;;;9.44;58.43;99918.69;4994214;28;98479;-79
2021/11/05 05:27:42;;;;;;;6.00;5.40;;;;;;;9.37;58.32;99916.34;4990177;28;101709;-80
2021/11/05 05:30:10;;;;;;;6.22;5.63;;;;;;;9.34;57.96;99905.97;5011308;28;97245;-79
2021/11/05 05:32:36;;;;;;;6.57;5.25;;;;;;;9.42;58.49;99917.88;4978188;28;96906;-79
2021/11/05 05:35:01;;;;;;;6.63;6.03;;;;;;;9.41;58.33;99921.41;4992654;28;97487;-80
2021/11/05 05:37:27;;;;;;;5.95;5.32;;;;;;;9.49;58.52;99929.00;4981720;28;101163;-80
2021/11/05 05:39:52;;;;;;;7.00;5.82;;;;;;;9.55;58.24;99926.16;4988475;28;97136;-80
2021/11/05 05:42:18;;;;;;;6.10;5.55;;;;;;;9.41;58.51;99917.94;4978349;28;98414;-79
2021/11/05 05:44:43;;;;;;;6.55;5.90;;;;;;;9.51;57.84;99930.66;4986138;28;101499;-80
2021/11/05 05:47:09;;;;;;;8.45;6.40;;;;;;;9.51;57.85;99941.16;4974116;28;101145;-80
2021/11/05 05:49:35;;;;;;;6.88;6.18;;;;;;;9.53;58.06;99941.09;4981877;28;97159;-80
2021/11/05 05:52:01;;;;;;;9.13;6.30;;;;;;;9.56;58.22;99950.59;4995643;28;98196;-80
2021/11/05 05:54:26;;;;;;;10.10;5.95;;;;;;;9.49;58.19;99953.44;4989718;28;101127;-79
2021/11/05 05:56:52;;;;;;;7.38;6.07;;;;;;;9.53;57.93;99954.19;4991043;28;101939;-80
2021/11/05 05:59:19;;;;;;;7.75;6.22;;;;;;;9.52;57.98;99957.72;5011231;28;96705;-79
2021/11/05 06:01:45;;;;;;;14.48;6.53;;;;;;;9.43;58.45;99944.97;4996256;28;96872;-80
2021/11/05 06:04:10;;;;;;;6.93;6.30;;;;;;;9.64;57.64;99980.03;4995902;28;100997;-80
2021/11/05 06:06:36;;;;;;;6.43;5.82;;;;;;;9.53;57.92;99983.84;4997322;28;101102;-80
2021/11/05 06:09:02;;;;;;;9.90;6.35;;;;;;;9.55;58.06;99983.81;4969603;28;97202;-81
2021/11/05 06:11:27;;;;;;;9.70;8.00;;;;;;;9.55;58.49;99991.69;5013422;28;96782;-80
2021/11/05 06:13:53;;;;;;;11.27;7.00;;;;;;;9.51;58.30;99982.19;4995743;28;101240;-80
2021/11/05 06:16:19;;;;;;;9.15;6.95;;;;;;;9.40;58.42;99969.50;5007200;28;100974;-79
2021/11/05 06:18:45;;;;;;;13.60;6.90;;;;;;;9.60;57.93;99997.63;4995017;28;96775;-80
2021/11/05 06:21:10;;;;;;;10.80;6.53;;;;;;;9.57;58.66;100000.34;4990456;28;97117;-78
2021/11/05 06:23:36;;;;;;;9.40;7.07;;;;;;;9.56;58.24;100001.25;4967962;28;101179;-78
2021/11/05 06:26:01;;;;;;;7.28;6.13;;;;;;;9.50;58.58;99998.84;4979676;28;101353;-80
2021/11/05 06:28:27;;;;;;;8.38;5.85;;;;;;;9.62;58.26;100014.13;5011460;28;96892;-79
2021/11/05 06:30:53;;;;;;;8.00;6.55;;;;;;;9.55;59.05;100028.38;4996465;28;97211;-79
2021/11/05 06:33:19;;;;;;;8.60;7.00;;;;;;;9.61;58.77;100033.41;4978286;28;101605;-79
2021/11/05 06:35:45;;;;;;;8.25;6.80;;;;;;;9.62;58.37;100053.44;4994748;28;101198;-79
2021/11/05 06:38:12;;;;;;;8.73;7.43;;;;;;;9.65;58.61;100049.84;4993150;28;97170;-80
2021/11/05 06:40:38;;;;;;;7.88;6.88;;;;;;;9.61;58.57;100061.38;5013502;28;96877;-79
2021/11/05 06:43:03;;;;;;;10.10;7.63;;;;;;;9.75;58.12;100057.34;5010298;28;98098;-80
2021/11/05 06:45:30;;;;;;;8.52;7.07;;;;;;;9.61;59.14;100067.47;4991924;28;97590;-78
2021/11/05 06:47:57;;;;;;;8.32;7.50;;;;;;;9.70;59.18;100080.25;4980835;28;96884;-79
2021/11/05 06:50:22;;;;;;;11.82;7.82;;;;;;;9.63;58.94;100077.88;4996313;28;97449;-80
2021/11/05 06:52:48;;;;;;;9.38;7.43;;;;;;;9.74;58.63;100087.13;4986324;28;101412;-80
2021/11/05 06:55:14;;;;;;;10.23;7.63;;;;;;;9.78;58.99;100085.25;4990355;28;101598;-80
2021/11/05 06:57:40;;;;;;;10.77;8.05;;;;;;;9.60;59.33;100072.75;4994389;28;96962;-77
2021/11/05 07:00:08;;;;;;;13.10;8.25;;;;;;;9.65;59.46;100094.41;5011328;28;97187;-82
2021/11/05 07:02:40;;;;;;;8.20;7.32;;;;;;;9.57;59.55;100071.09;4982552;28;102156;-81
2021/11/05 07:05:11;;;;;;;9.23;7.60;;;;;;;9.66;59.52;100094.38;4988212;28;100011;-81
2021/11/05 07:07:37;;;;;;;9.63;7.63;;;;;;;9.71;59.38;100104.69;4980539;28;96935;-83
2021/11/05 07:10:05;;;;;;;7.43;6.72;;;;;;;9.68;58.97;100110.03;4998427;28;96781;-93
2021/11/05 07:12:31;;;;;;;10.45;6.63;;;;;;;9.73;59.47;100116.84;5004152;28;100122;-92
2021/11/05 07:14:57;;;;;;;7.80;6.60;;;;;;;9.75;59.38;100116.78;5020135;28;100853;-93
2021/11/05 07:17:22;;;;;;;6.90;6.28;;;;;;;9.75;59.50;100124.66;5000735;28;96617;-89
2021/11/05 07:19:48;;;;;;;7.82;7.05;;;;;;;9.62;59.07;100107.63;5023160;28;96853;-91
2021/11/05 07:22:14;;;;;;;7.18;6.43;;;;;;;9.68;59.34;100112.66;4989293;28;98168;-93
2021/11/05 07:24:39;;;;;;;8.55;7.10;;;;;;;9.79;59.31;100141.13;5008546;28;97832;-86
2021/11/05 07:27:05;;;;;;;7.70;6.53;;;;;;;9.67;59.75;100132.78;5016031;28;96595;-93
2021/11/05 07:29:32;;;;;;;9.10;6.65;;;;;;;9.65;59.81;100144.22;5003968;28;97243;-91
2021/11/05 07:32:00;;;;;;;10.82;6.93;;;;;;;9.70;59.66;100158.88;4968734;28;101452;-93
2021/11/05 07:34:32;;;;;;;8.07;7.07;;;;;;;9.75;59.93;100153.50;4993248;28;101524;-92
2021/11/05 07:36:58;;;;;;;8.48;7.20;;;;;;;9.79;59.87;100169.97;4999704;28;96811;-93
2021/11/05 07:39:24;;;;;;;10.27;7.20;;;;;;;9.74;60.05;100171.00;5010728;28;96640;-92
2021/11/05 07:41:50;;;;;;;8.40;7.22;;;;;;;9.74;59.99;100171.00;4999632;28;99941;-92
2021/11/05 07:44:15;;;;;;;9.30;8.40;;;;;;;9.74;59.93;100178.84;5018268;28;97883;-93
2021/11/05 07:46:42;;;;;;;9.18;7.65;;;;;;;9.70;60.22;100185.09;4996937;28;96762;-92
2021/11/05 07:49:08;;;;;;;11.45;7.47;;;;;;;9.74;59.87;100176.25;4981880;28;96895;-90
2021/11/05 07:51:33;;;;;;;7.15;6.45;;;;;;;9.81;60.11;100189.13;4994320;28;101184;-92
2021/11/05 07:53:59;;;;;;;8.43;7.40;;;;;;;9.70;60.15;100165.88;5001279;28;101210;-92
2021/11/05 07:56:24;;;;;;;9.45;7.45;;;;;;;9.77;60.71;100185.75;4971775;28;98385;-91
2021/11/05 07:58:50;;;;;;;12.85;8.93;;;;;;;9.79;60.73;100189.19;4990902;28;96871;-87
2021/11/05 08:01:15;;;;;;;11.13;8.27;;;;;;;9.82;60.87;100198.72;5000011;28;101104;-92
2021/11/05 08:03:41;;;;;;;10.13;7.50;;;;;;;9.75;60.13;100182.34;5008996;28;98335;-92
2021/11/05 08:06:08;;;;;;;11.88;8.70;;;;;;;10.02;59.64;100193.66;4996678;28;97231;-93
2021/11/05 08:08:34;;;;;;;9.75;8.25;;;;;;;9.95;60.13;100202.66;5014652;28;97006;-92
2021/11/05 08:10:59;;;;;;;9.98;8.40;;;;;;;9.85;60.47;100193.34;5014683;28;97528;-91
2021/11/05 08:13:25;;;;;;;9.23;8.05;;;;;;;9.88;60.19;100201.13;4979745;28;100360;-91
2021/11/05 08:15:50;;;;;;;10.18;8.90;;;;;;;9.95;60.40;100218.38;5000533;28;96875;-91
2021/11/05 08:18:16;;;;;;;11.40;7.70;;;;;;;9.96;60.36;100210.44;4984732;27;96974;-88
2021/11/05 08:20:41;;;;;;;9.68;8.38;;;;;;;9.96;60.75;100218.31;4999021;28;98297;-88
2021/11/05 08:23:08;;;;;;;9.38;7.60;;;;;;;10.02;60.14;100222.50;5012941;28;98261;-78
2021/11/05 08:25:35;;;;;;;9.85;7.72;;;;;;;9.88;60.77;100215.09;4983003;28;96762;-79
2021/11/05 08:28:01;;;;;;;9.00;7.82;;;;;;;9.91;61.15;100222.00;4999606;28;96990;-80
2021/11/05 08:30:27;;;;;;;9.77;7.88;;;;;;;10.06;60.37;100241.59;4994889;28;98008;-79
2021/11/05 08:32:58;;;;;;;9.48;7.80;;;;;;;10.08;60.56;100243.28;4976058;28;101451;-78
2021/11/05 08:35:25;;;;;;;11.00;7.80;;;;;;;10.09;60.53;100231.88;5010147;28;97385;-77
2021/11/05 08:37:51;;;;;;;9.50;7.72;;;;;;;10.06;60.57;100239.00;4981586;28;96954;-83
2021/11/05 08:40:17;;;;;;;16.00;7.10;;;;;;;10.20;60.66;100242.00;4979266;28;101823;-83
2021/11/05 08:42:44;;;;;;;7.18;6.18;;;;;;;10.32;59.78;100248.63;4997096;28;101196;-83
2021/11/05 08:45:10;;;;;;;12.45;8.50;;;;;;;10.33;60.00;100245.13;4978095;28;96824;-84
2021/11/05 08:47:37;;;;;;;8.45;7.75;;;;;;;10.23;59.72;100238.44;4999039;28;96868;-84
2021/11/05 08:50:07;;;;;;;8.90;7.28;;;;;;;10.34;60.00;100258.19;4978387;28;101628;-84
2021/11/05 08:52:33;;;;;;;9.18;6.57;;;;;;;10.45;59.80;100268.31;4979461;28;100979;-84
2021/11/05 08:55:04;;;;;;;8.02;6.88;;;;;;;10.57;59.63;100267.88;4976644;28;99294;-83
2021/11/05 08:57:31;;;;;;;8.77;6.30;;;;;;;10.69;58.98;100268.38;4996826;28;96964;-84
2021/11/05 08:59:58;;;;;;;6.65;5.95;;;;;;;10.67;59.64;100273.66;5012315;28;97478;-84
2021/11/05 09:02:24;;;;;;;6.32;5.22;;;;;;;10.55;59.26;100255.72;4977319;28;101171;-84
2021/11/05 09:04:49;;;;;;;6.65;5.78;;;;;;;10.69;59.02;100284.13;4988800;28;97364;-81
2021/11/05 09:07:15;;;;;;;5.80;5.20;;;;;;;10.64;59.04;100293.00;5019253;28;97149;-80
2021/11/05 09:09:42;;;;;;;6.90;5.28;;;;;;;10.64;58.97;100282.50;4998327;28;101213;-82
2021/11/05 09:12:08;;;;;;;6.28;5.53;;;;;;;10.45;59.16;100284.06;5004235;28;97591;-82
2021/11/05 09:14:33;;;;;;;6.43;5.60;;;;;;;10.56;59.13;100302.94;4991678;28;96883;-75
2021/11/05 09:16:59;;;;;;;6.35;5.75;;;;;;;10.63;59.04;100307.03;4992995;28;97631;-80
2021/11/05 09:19:24;;;;;;;8.80;5.97;;;;;;;10.60;59.78;100308.94;4984774;28;101273;-80
2021/11/05 09:21:50;;;;;;;7.70;6.50;;;;;;;10.68;59.48;100319.16;4995559;28;101093;-79
2021/11/05 09:24:16;;;;;;;9.23;6.53;;;;;;;10.68;59.14;100321.78;4983325;28;96991;-79
2021/11/05 09:26:41;;;;;;;8.93;6.75;;;;;;;10.68;59.46;100322.66;4981109;28;97432;-79
2021/11/05 09:29:07;;;;;;;9.43;6.18;;;;;;;10.57;59.09;100323.00;5025685;28;97336;-79
2021/11/05 09:31:33;;;;;;;9.95;7.00;;;;;;;10.67;59.29;100323.53;4990081;28;101277;-79
2021/11/05 09:33:58;;;;;;;6.97;6.28;;;;;;;10.68;59.26;100316.53;5012576;28;97173;-79
2021/11/05 09:36:24;;;;;;;9.68;6.40;;;;;;;10.70;59.17;100330.47;4995001;28;97058;-80
2021/11/05 09:38:50;;;;;;;13.85;5.97;;;;;;;10.70;59.09;100333.09;4996156;28;100970;-79
2021/11/05 09:41:16;;;;;;;10.95;7.00;;;;;;;10.67;59.27;100339.28;4994057;28;101605;-80
2021/11/05 09:43:42;;;;;;;6.72;5.88;;;;;;;10.71;59.10;100346.16;4989682;28;96873;-80
2021/11/05 09:46:08;;;;;;;12.77;6.18;;;;;;;10.68;59.65;100340.19;4994134;28;97499;-79
2021/11/05 09:48:39;;;;;;;8.73;6.32;;;;;;;10.70;59.09;100346.22;4991875;28;101689;-80
2021/11/05 09:51:07;;;;;;;8.60;6.50;;;;;;;10.66;59.65;100337.59;4992331;28;101439;-79
2021/11/05 09:53:36;;;;;;;7.65;6.10;;;;;;;10.53;59.75;100321.41;4983923;28;97054;-80
2021/11/05 09:56:02;;;;;;;7.55;6.25;;;;;;;10.54;59.94;100332.75;5003745;28;97179;-79
2021/11/05 09:58:27;;;;;;;7.07;6.38;;;;;;;10.58;60.00;100355.34;5003366;28;97535;-80
2021/11/05 10:00:53;;;;;;;8.52;6.45;;;;;;;10.65;60.27;100359.50;4987285;28;101235;-80
2021/11/05 10:03:19;;;;;;;11.52;6.65;;;;;;;10.71;60.09;100355.81;4990819;28;97794;-75
2021/11/05 10:05:45;;;;;;;7.28;5.85;;;;;;;10.51;60.69;100340.75;4991528;28;97414;-75
2021/11/05 10:08:10;;;;;;;8.35;5.90;;;;;;;10.67;60.47;100368.16;4993542;28;98593;-79
2021/11/05 10:10:40;;;;;;;9.05;5.90;;;;;;;10.69;60.88;100371.63;4991221;28;101423;-79
2021/11/05 10:13:13;;;;;;;7.97;5.72;;;;;;;10.49;60.60;100342.53;4996985;28;96748;-80
2021/11/05 10:15:42;;;;;;;5.93;5.32;;;;;;;10.66;60.85;100379.59;5009445;28;97042;-79
2021/11/05 10:18:29;;;;;;;8.50;5.75;;;;;;;10.66;60.84;100379.59;4995944;28;101117;-79
2021/11/05 10:21:06;;;;;;;5.72;5.20;;;;;;;10.62;60.88;100375.38;5013308;28;97917;-79
2021/11/05 10:23:35;;;;;;;5.20;4.70;;;;;;;10.63;61.01;100384.94;5019484;28;97048;-83
2021/11/05 10:26:03;;;;;;;6.50;4.78;;;;;;;10.63;61.26;100380.53;4972034;28;97160;-84
2021/11/05 10:28:29;;;;;;;5.00;4.60;;;;;;;10.63;61.15;100390.19;4993553;28;101135;-82
2021/11/05 10:31:03;;;;;;;5.78;4.75;;;;;;;10.46;61.80;100374.16;5012246;28;98189;-83
2021/11/05 10:33:47;;;;;;;6.95;4.88;;;;;;;10.50;61.90;100399.38;4998650;28;96786;-87
2021/11/05 10:36:16;;;;;;;4.47;4.18;;;;;;;10.57;61.97;100408.78;4994534;28;96692;-81
2021/11/05 10:38:49;;;;;;;4.50;4.20;;;;;;;10.49;62.63;100413.41;4993230;28;101405;-85
2021/11/05 10:41:19;;;;;;;4.03;3.72;;;;;;;10.37;62.44;100394.53;5026360;28;98325;-85
2021/11/05 10:43:51;;;;;;;5.70;3.80;;;;;;;10.39;64.01;100407.59;4993903;28;97819;-88
2021/11/05 10:46:28;;;;;;;5.13;3.60;;;;;;;10.32;64.71;100413.94;4991499;28;96849;-87
2021/11/05 10:48:56;;;;;;;3.83;3.53;;;;;;;10.35;64.58;100422.56;5032034;28;97521;-89
2021/11/05 10:51:24;;;;;;;3.70;3.47;;;;;;;10.34;64.78;100415.63;5006865;28;97842;-86
2021/11/05 10:53:50;;;;;;;4.13;3.72;;;;;;;10.30;64.03;100400.88;4977037;28;96940;-87
2021/11/05 10:56:17;;;;;;;3.80;3.50;;;;;;;10.37;64.35;100412.88;5011842;28;96993;-78
2021/11/05 10:58:53;;;;;;;3.88;3.58;;;;;;;10.37;65.15;100425.16;5012308;28;97811;-82
2021/11/05 11:01:20;;;;;;;4.07;3.78;;;;;;;10.52;64.72;100429.91;5011671;28;97782;-85
2021/11/05 11:03:54;;;;;;;3.38;3.17;;;;;;;10.52;64.50;100410.69;4989602;28;97974;-84
2021/11/05 11:06:27;;;;;;;3.90;3.70;;;;;;;10.51;65.38;100422.09;4988008;28;96932;-85
2021/11/05 11:08:55;;;;;;;3.28;3.03;;;;;;;10.52;65.41;100422.03;4990969;28;101405;-86
2021/11/05 11:11:34;;;;;;;4.30;4.00;;;;;;;10.57;65.81;100435.03;4991541;28;101263;-82
2021/11/05 11:14:01;;;;;;;3.80;3.50;;;;;;;10.51;65.86;100436.06;4978272;28;97228;-83
2021/11/05 11:16:35;;;;;;;4.20;3.58;;;;;;;10.50;65.96;100428.22;5024889;28;97000;-82
2021/11/05 11:19:07;;;;;;;4.20;3.90;;;;;;;10.70;65.95;100443.34;4991948;28;101601;-81
2021/11/05 11:21:37;;;;;;;4.53;4.15;;;;;;;10.74;65.24;100442.34;4990786;28;101681;-81
2021/11/05 11:24:05;;;;;;;4.20;3.90;;;;;;;10.63;65.41;100448.81;5011368;28;96975;-82
2021/11/05 11:26:31;;;;;;;3.80;3.60;;;;;;;10.60;65.04;100435.78;5009375;28;97363;-80
2021/11/05 11:28:57;;;;;;;4.32;4.03;;;;;;;10.75;64.74;100447.53;4993401;28;101444;-81